Terminal Aerodrome Forecast
Issued by NWS Duluth, MN

Home | Current Version | Previous Version | Text Only | Print | Product List | Glossary On
Versions: 1 2 3 4 5 6 7 8 9 10 11 12 13 14 15 16 17 18 19 20 21 22 23 24 25 26 27 28
000
FTUS43 KDLH 281900 AAA
TAFDLH
TAF AMD
KDLH 281955Z 2820/2918 14009KT 6SM HZ OVC010
     FM282300 16009KT 5SM -FZDZ BR OVC005
     FM290400 29007KT 5SM -FZDZSN BR SCT006 OVC012
     FM291100 31012G25KT 5SM BR VCSH SCT008 BKN018=

USA.gov is the U.S. government's official web portal to all federal, state and local government web resources and services.